TPC5711 KTUS-KSAN
Flight info
| Callsign | TPC5711 |
|---|---|
| Flight time | 0h 58m |
| Altitude | 36000 |
| Route | WLDKT4 GBN J2 HOGGZ LUCKI1 |
| Aircraft | A320/M-SDE3FGHIRWY/LB1 |
Departure
| Time | 2026-04-24 02:45 |
|---|---|
| Airport | Tucson International Airport (KTUS) |
Arrival
| Time | 2026-04-24 03:43 |
|---|---|
| Airport | San Diego International Airport (KSAN) |
| Time | Latitude | Longitude | Altitude | Speed | Heading |
|---|---|---|---|---|---|
| 2026-04-24 02:14 | 32.11856 | -110.93683 | 2606 ft | 0 kts | 346° |
| 2026-04-24 02:33 | 32.11831 | -110.93676 | 2606 ft | 4 kts | 346° |
| 2026-04-24 02:33 | 32.11805 | -110.93668 | 2606 ft | 4 kts | 342° |
| 2026-04-24 02:33 | 32.11782 | -110.93656 | 2605 ft | 4 kts | 314° |
| 2026-04-24 02:34 | 32.11774 | -110.93639 | 2605 ft | 3 kts | 229° |
| 2026-04-24 02:34 | 32.11776 | -110.93636 | 2605 ft | 2 kts | 225° |
| 2026-04-24 02:36 | 32.11761 | -110.93654 | 2605 ft | 8 kts | 228° |
| 2026-04-24 02:37 | 32.11748 | -110.93731 | 2603 ft | 12 kts | 272° |
| 2026-04-24 02:37 | 32.11693 | -110.93779 | 2605 ft | 12 kts | 161° |
| 2026-04-24 02:37 | 32.11621 | -110.93707 | 2606 ft | 16 kts | 135° |
| 2026-04-24 02:37 | 32.11532 | -110.93598 | 2607 ft | 20 kts | 133° |
| 2026-04-24 02:38 | 32.11429 | -110.93468 | 2611 ft | 23 kts | 135° |
| 2026-04-24 02:38 | 32.11301 | -110.93337 | 2609 ft | 26 kts | 137° |
| 2026-04-24 02:38 | 32.11173 | -110.93181 | 2608 ft | 28 kts | 135° |
| 2026-04-24 02:38 | 32.11026 | -110.93009 | 2607 ft | 31 kts | 135° |
| 2026-04-24 02:39 | 32.10890 | -110.92851 | 2606 ft | 21 kts | 134° |
| 2026-04-24 02:39 | 32.10788 | -110.92728 | 2609 ft | 21 kts | 136° |
| 2026-04-24 02:39 | 32.10680 | -110.92603 | 2610 ft | 22 kts | 136° |
| 2026-04-24 02:39 | 32.10570 | -110.92474 | 2612 ft | 23 kts | 135° |
| 2026-04-24 02:40 | 32.10449 | -110.92331 | 2610 ft | 26 kts | 135° |
| 2026-04-24 02:40 | 32.10359 | -110.92224 | 2609 ft | 14 kts | 149° |
| 2026-04-24 02:40 | 32.10278 | -110.92220 | 2608 ft | 1 kts | 213° |
| 2026-04-24 02:43 | 32.10275 | -110.92223 | 2608 ft | 3 kts | 213° |
| 2026-04-24 02:43 | 32.10249 | -110.92246 | 2608 ft | 6 kts | 221° |
| 2026-04-24 02:43 | 32.10224 | -110.92297 | 2608 ft | 8 kts | 266° |
| 2026-04-24 02:43 | 32.10247 | -110.92345 | 2609 ft | 0 kts | 312° |
| 2026-04-24 02:44 | 32.10300 | -110.92409 | 2610 ft | 41 kts | 315° |
| 2026-04-24 02:44 | 32.10674 | -110.92844 | 2610 ft | 107 kts | 315° |
| 2026-04-24 02:44 | 32.11322 | -110.93606 | 2614 ft | 154 kts | 315° |
| 2026-04-24 02:44 | 32.12135 | -110.94548 | 3051 ft | 169 kts | 316° |
| 2026-04-24 02:45 | 32.12998 | -110.95529 | 3859 ft | 171 kts | 316° |
| 2026-04-24 02:45 | 32.13895 | -110.96509 | 4401 ft | 183 kts | 314° |
| 2026-04-24 02:45 | 32.14847 | -110.97636 | 4792 ft | 206 kts | 312° |
| 2026-04-24 02:45 | 32.15910 | -110.98926 | 5217 ft | 232 kts | 312° |
| 2026-04-24 02:46 | 32.17094 | -111.00362 | 5701 ft | 255 kts | 312° |
| 2026-04-24 02:46 | 32.18371 | -111.01895 | 6452 ft | 266 kts | 312° |
| 2026-04-24 02:46 | 32.19684 | -111.03458 | 7328 ft | 270 kts | 313° |
| 2026-04-24 02:46 | 32.21017 | -111.05049 | 8190 ft | 275 kts | 310° |
| 2026-04-24 02:47 | 32.22118 | -111.06900 | 9057 ft | 276 kts | 295° |
| 2026-04-24 02:47 | 32.22776 | -111.09022 | 9977 ft | 276 kts | 281° |
| 2026-04-24 02:47 | 32.23125 | -111.11316 | 10466 ft | 295 kts | 279° |
| 2026-04-24 02:47 | 32.23486 | -111.13803 | 10755 ft | 318 kts | 278° |
| 2026-04-24 02:48 | 32.23865 | -111.16426 | 11313 ft | 328 kts | 279° |
| 2026-04-24 02:48 | 32.24251 | -111.19094 | 12108 ft | 331 kts | 279° |
| 2026-04-24 02:48 | 32.24644 | -111.21785 | 12933 ft | 333 kts | 279° |
| 2026-04-24 02:48 | 32.25037 | -111.24480 | 13748 ft | 334 kts | 278° |
| 2026-04-24 02:49 | 32.25545 | -111.27175 | 14427 ft | 338 kts | 283° |
| 2026-04-24 02:49 | 32.26164 | -111.29861 | 15094 ft | 341 kts | 284° |
| 2026-04-24 02:49 | 32.26827 | -111.32568 | 15731 ft | 344 kts | 285° |
| 2026-04-24 02:49 | 32.27508 | -111.35291 | 16371 ft | 348 kts | 285° |
| 2026-04-24 02:50 | 32.28188 | -111.38008 | 16986 ft | 351 kts | 285° |
| 2026-04-24 02:50 | 32.28874 | -111.40790 | 17616 ft | 355 kts | 285° |
| 2026-04-24 02:50 | 32.29561 | -111.43608 | 18244 ft | 358 kts | 285° |
| 2026-04-24 02:50 | 32.30247 | -111.46451 | 18817 ft | 361 kts | 285° |
| 2026-04-24 02:51 | 32.30935 | -111.49312 | 19438 ft | 363 kts | 285° |
| 2026-04-24 02:51 | 32.31626 | -111.52184 | 20074 ft | 364 kts | 285° |
| 2026-04-24 02:51 | 32.32331 | -111.55102 | 20766 ft | 364 kts | 284° |
| 2026-04-24 02:51 | 32.33016 | -111.57947 | 21373 ft | 366 kts | 284° |
| 2026-04-24 02:52 | 32.33711 | -111.60846 | 21958 ft | 367 kts | 284° |
| 2026-04-24 02:52 | 32.34406 | -111.63757 | 22520 ft | 369 kts | 284° |
| 2026-04-24 02:52 | 32.35106 | -111.66690 | 23079 ft | 371 kts | 284° |
| 2026-04-24 02:52 | 32.35812 | -111.69635 | 23595 ft | 373 kts | 284° |
| 2026-04-24 02:53 | 32.36523 | -111.72598 | 24054 ft | 375 kts | 284° |
| 2026-04-24 02:53 | 32.37236 | -111.75577 | 24498 ft | 377 kts | 284° |
| 2026-04-24 02:53 | 32.37951 | -111.78571 | 24932 ft | 379 kts | 283° |
| 2026-04-24 02:53 | 32.38667 | -111.81578 | 25369 ft | 381 kts | 283° |
| 2026-04-24 02:54 | 32.39385 | -111.84599 | 25805 ft | 382 kts | 283° |
| 2026-04-24 02:54 | 32.40105 | -111.87635 | 26231 ft | 384 kts | 283° |
| 2026-04-24 02:54 | 32.40829 | -111.90685 | 26681 ft | 386 kts | 283° |
| 2026-04-24 02:54 | 32.41557 | -111.93745 | 27145 ft | 387 kts | 283° |
| 2026-04-24 02:55 | 32.42287 | -111.96816 | 27603 ft | 389 kts | 283° |
| 2026-04-24 02:55 | 32.43017 | -111.99904 | 28046 ft | 390 kts | 283° |
| 2026-04-24 02:55 | 32.43750 | -112.03013 | 28474 ft | 392 kts | 283° |
| 2026-04-24 02:55 | 32.44485 | -112.06125 | 28890 ft | 394 kts | 283° |
| 2026-04-24 02:56 | 32.45226 | -112.09262 | 29316 ft | 396 kts | 283° |
| 2026-04-24 02:56 | 32.45971 | -112.12414 | 29771 ft | 398 kts | 283° |
| 2026-04-24 02:56 | 32.46718 | -112.15578 | 30160 ft | 400 kts | 283° |
| 2026-04-24 02:56 | 32.47464 | -112.18755 | 30590 ft | 400 kts | 283° |
| 2026-04-24 02:57 | 32.48204 | -112.21918 | 31128 ft | 397 kts | 283° |
| 2026-04-24 02:57 | 32.48936 | -112.25060 | 31673 ft | 395 kts | 283° |
| 2026-04-24 02:57 | 32.49654 | -112.28146 | 32207 ft | 392 kts | 283° |
| 2026-04-24 02:57 | 32.50380 | -112.31252 | 32750 ft | 390 kts | 283° |
| 2026-04-24 02:58 | 32.51102 | -112.34336 | 33288 ft | 387 kts | 283° |
| 2026-04-24 02:58 | 32.51818 | -112.37402 | 33825 ft | 385 kts | 283° |
| 2026-04-24 02:58 | 32.52529 | -112.40449 | 34292 ft | 383 kts | 283° |
| 2026-04-24 02:58 | 32.53233 | -112.43479 | 34787 ft | 380 kts | 282° |
| 2026-04-24 02:59 | 32.53932 | -112.46491 | 35269 ft | 377 kts | 282° |
| 2026-04-24 02:59 | 32.54624 | -112.49475 | 35728 ft | 374 kts | 282° |
| 2026-04-24 02:59 | 32.55320 | -112.52481 | 35863 ft | 373 kts | 282° |
| 2026-04-24 02:59 | 32.55995 | -112.55401 | 35892 ft | 371 kts | 282° |
| 2026-04-24 03:00 | 32.57358 | -112.61293 | 35901 ft | 370 kts | 282° |
| 2026-04-24 03:00 | 32.58716 | -112.67182 | 35903 ft | 370 kts | 282° |
| 2026-04-24 03:01 | 32.60071 | -112.73073 | 35931 ft | 370 kts | 282° |
| 2026-04-24 03:01 | 32.61428 | -112.79015 | 35886 ft | 375 kts | 282° |
| 2026-04-24 03:02 | 32.62796 | -112.85005 | 35888 ft | 376 kts | 282° |
| 2026-04-24 03:02 | 32.64168 | -112.90997 | 35895 ft | 377 kts | 282° |
| 2026-04-24 03:03 | 32.65536 | -112.96991 | 35894 ft | 377 kts | 282° |
| 2026-04-24 03:03 | 32.66895 | -113.02957 | 35894 ft | 377 kts | 282° |
| 2026-04-24 03:04 | 32.68254 | -113.08963 | 35892 ft | 377 kts | 282° |
| 2026-04-24 03:04 | 32.69621 | -113.15011 | 35879 ft | 385 kts | 282° |
| 2026-04-24 03:05 | 32.71013 | -113.21190 | 35874 ft | 388 kts | 282° |
| 2026-04-24 03:05 | 32.72408 | -113.27388 | 35874 ft | 389 kts | 282° |
| 2026-04-24 03:06 | 32.73807 | -113.33597 | 35894 ft | 391 kts | 282° |
| 2026-04-24 03:06 | 32.74989 | -113.38859 | 35877 ft | 395 kts | 282° |
| 2026-04-24 03:07 | 32.76388 | -113.45126 | 35851 ft | 395 kts | 282° |
| 2026-04-24 03:07 | 32.77793 | -113.51436 | 35862 ft | 395 kts | 282° |
| 2026-04-24 03:08 | 32.79891 | -113.60883 | 35875 ft | 394 kts | 282° |
| 2026-04-24 03:09 | 32.81196 | -113.67205 | 35879 ft | 392 kts | 276° |
| 2026-04-24 03:09 | 32.80968 | -113.73614 | 35874 ft | 390 kts | 261° |
| 2026-04-24 03:10 | 32.80056 | -113.79966 | 35882 ft | 390 kts | 261° |
| 2026-04-24 03:10 | 32.79150 | -113.86310 | 35882 ft | 390 kts | 261° |
| 2026-04-24 03:11 | 32.78240 | -113.92656 | 35888 ft | 389 kts | 261° |
| 2026-04-24 03:11 | 32.77556 | -113.99029 | 35883 ft | 389 kts | 269° |
| 2026-04-24 03:12 | 32.77496 | -114.05463 | 35880 ft | 389 kts | 269° |
| 2026-04-24 03:12 | 32.77571 | -114.11886 | 35882 ft | 388 kts | 271° |
| 2026-04-24 03:12 | 32.77711 | -114.15032 | 35873 ft | 376 kts | 272° |
| 2026-04-24 03:13 | 32.77875 | -114.18117 | 35874 ft | 372 kts | 272° |
| 2026-04-24 03:13 | 32.78184 | -114.24231 | 35880 ft | 370 kts | 271° |
| 2026-04-24 03:14 | 32.78437 | -114.30340 | 35904 ft | 370 kts | 271° |
| 2026-04-24 03:14 | 32.78667 | -114.36455 | 35870 ft | 374 kts | 272° |
| 2026-04-24 03:15 | 32.79808 | -114.42517 | 35888 ft | 379 kts | 284° |
| 2026-04-24 03:15 | 32.81460 | -114.48468 | 35897 ft | 379 kts | 284° |
| 2026-04-24 03:16 | 32.83094 | -114.54422 | 35899 ft | 379 kts | 284° |
| 2026-04-24 03:16 | 32.84728 | -114.60367 | 35891 ft | 379 kts | 284° |
| 2026-04-24 03:17 | 32.86360 | -114.66326 | 35885 ft | 378 kts | 284° |
| 2026-04-24 03:17 | 32.87759 | -114.72336 | 35888 ft | 374 kts | 275° |
| 2026-04-24 03:18 | 32.87796 | -114.78492 | 35883 ft | 373 kts | 268° |
| 2026-04-24 03:18 | 32.87659 | -114.84658 | 35880 ft | 373 kts | 268° |
| 2026-04-24 03:19 | 32.87527 | -114.90816 | 35882 ft | 373 kts | 268° |
| 2026-04-24 03:19 | 32.87389 | -114.96981 | 35884 ft | 373 kts | 268° |
| 2026-04-24 03:20 | 32.87252 | -115.03153 | 35883 ft | 373 kts | 268° |
| 2026-04-24 03:20 | 32.87109 | -115.09321 | 35870 ft | 374 kts | 267° |
| 2026-04-24 03:20 | 32.87032 | -115.12416 | 34914 ft | 376 kts | 267° |
| 2026-04-24 03:21 | 32.86950 | -115.15574 | 33470 ft | 386 kts | 267° |
| 2026-04-24 03:21 | 32.86870 | -115.18718 | 32889 ft | 371 kts | 267° |
| 2026-04-24 03:21 | 32.86798 | -115.21737 | 32200 ft | 362 kts | 267° |
| 2026-04-24 03:21 | 32.86726 | -115.24746 | 31430 ft | 367 kts | 267° |
| 2026-04-24 03:22 | 32.86650 | -115.27798 | 30652 ft | 372 kts | 267° |
| 2026-04-24 03:22 | 32.86573 | -115.30855 | 29770 ft | 378 kts | 267° |
| 2026-04-24 03:22 | 32.86468 | -115.33994 | 29044 ft | 377 kts | 264° |
| 2026-04-24 03:22 | 32.86085 | -115.37061 | 28403 ft | 375 kts | 261° |
| 2026-04-24 03:23 | 32.85657 | -115.40086 | 27743 ft | 368 kts | 261° |
| 2026-04-24 03:23 | 32.85230 | -115.43094 | 27092 ft | 370 kts | 261° |
| 2026-04-24 03:23 | 32.84803 | -115.46105 | 26427 ft | 369 kts | 261° |
| 2026-04-24 03:23 | 32.84379 | -115.49112 | 25773 ft | 368 kts | 261° |
| 2026-04-24 03:24 | 32.83925 | -115.52119 | 25317 ft | 375 kts | 260° |
| 2026-04-24 03:24 | 32.83429 | -115.55191 | 24838 ft | 381 kts | 259° |
| 2026-04-24 03:24 | 32.82913 | -115.58281 | 24351 ft | 381 kts | 259° |
| 2026-04-24 03:24 | 32.82393 | -115.61363 | 23859 ft | 380 kts | 259° |
| 2026-04-24 03:25 | 32.81879 | -115.64433 | 23385 ft | 378 kts | 259° |
| 2026-04-24 03:25 | 32.81371 | -115.67482 | 22844 ft | 375 kts | 260° |
| 2026-04-24 03:25 | 32.80870 | -115.70515 | 22366 ft | 372 kts | 260° |
| 2026-04-24 03:25 | 32.80374 | -115.73528 | 21889 ft | 370 kts | 260° |
| 2026-04-24 03:26 | 32.79884 | -115.76513 | 21412 ft | 368 kts | 260° |
| 2026-04-24 03:26 | 32.79395 | -115.79488 | 20944 ft | 365 kts | 260° |
| 2026-04-24 03:26 | 32.78905 | -115.82437 | 20478 ft | 363 kts | 260° |
| 2026-04-24 03:26 | 32.78469 | -115.85382 | 20011 ft | 360 kts | 265° |
| 2026-04-24 03:27 | 32.78252 | -115.88337 | 19556 ft | 358 kts | 265° |
| 2026-04-24 03:27 | 32.78039 | -115.91272 | 19098 ft | 356 kts | 265° |
| 2026-04-24 03:27 | 32.77824 | -115.94197 | 18631 ft | 354 kts | 265° |
| 2026-04-24 03:27 | 32.77609 | -115.97100 | 18174 ft | 352 kts | 265° |
| 2026-04-24 03:28 | 32.77392 | -115.99991 | 17679 ft | 351 kts | 265° |
| 2026-04-24 03:28 | 32.77173 | -116.02877 | 17257 ft | 350 kts | 265° |
| 2026-04-24 03:28 | 32.76955 | -116.05744 | 16814 ft | 348 kts | 265° |
| 2026-04-24 03:28 | 32.76736 | -116.08611 | 16371 ft | 347 kts | 265° |
| 2026-04-24 03:29 | 32.76519 | -116.11451 | 15922 ft | 345 kts | 265° |
| 2026-04-24 03:29 | 32.76303 | -116.14285 | 15510 ft | 343 kts | 265° |
| 2026-04-24 03:29 | 32.76089 | -116.17104 | 15065 ft | 342 kts | 265° |
| 2026-04-24 03:29 | 32.75874 | -116.19908 | 14626 ft | 340 kts | 265° |
| 2026-04-24 03:30 | 32.75659 | -116.22681 | 14318 ft | 331 kts | 265° |
| 2026-04-24 03:30 | 32.75452 | -116.25333 | 14153 ft | 316 kts | 265° |
| 2026-04-24 03:30 | 32.75251 | -116.27905 | 13860 ft | 309 kts | 265° |
| 2026-04-24 03:30 | 32.75051 | -116.30441 | 13611 ft | 308 kts | 265° |
| 2026-04-24 03:31 | 32.74860 | -116.32932 | 13267 ft | 306 kts | 265° |
| 2026-04-24 03:31 | 32.74668 | -116.35451 | 12811 ft | 305 kts | 265° |
| 2026-04-24 03:31 | 32.74475 | -116.37955 | 12346 ft | 304 kts | 265° |
| 2026-04-24 03:31 | 32.74282 | -116.40451 | 11904 ft | 303 kts | 265° |
| 2026-04-24 03:32 | 32.74087 | -116.42944 | 11442 ft | 303 kts | 265° |
| 2026-04-24 03:32 | 32.73892 | -116.45421 | 11147 ft | 297 kts | 265° |
| 2026-04-24 03:32 | 32.73705 | -116.47818 | 11024 ft | 286 kts | 265° |
| 2026-04-24 03:32 | 32.73523 | -116.50134 | 10838 ft | 279 kts | 265° |
| 2026-04-24 03:33 | 32.73324 | -116.52426 | 10596 ft | 274 kts | 264° |
| 2026-04-24 03:33 | 32.73110 | -116.54674 | 10270 ft | 273 kts | 264° |
| 2026-04-24 03:33 | 32.72888 | -116.56904 | 9928 ft | 272 kts | 264° |
| 2026-04-24 03:33 | 32.72666 | -116.59132 | 9546 ft | 272 kts | 264° |
| 2026-04-24 03:34 | 32.72446 | -116.61335 | 9210 ft | 272 kts | 263° |
| 2026-04-24 03:34 | 32.72224 | -116.63587 | 8858 ft | 271 kts | 264° |
| 2026-04-24 03:34 | 32.72007 | -116.65804 | 8511 ft | 271 kts | 264° |
| 2026-04-24 03:34 | 32.71811 | -116.67997 | 8168 ft | 270 kts | 265° |
| 2026-04-24 03:35 | 32.71635 | -116.70213 | 7823 ft | 269 kts | 265° |
| 2026-04-24 03:35 | 32.71467 | -116.72417 | 7481 ft | 268 kts | 265° |
| 2026-04-24 03:35 | 32.71302 | -116.74620 | 7139 ft | 268 kts | 265° |
| 2026-04-24 03:35 | 32.71136 | -116.76819 | 6796 ft | 268 kts | 265° |
| 2026-04-24 03:36 | 32.70968 | -116.79029 | 6450 ft | 269 kts | 265° |
| 2026-04-24 03:36 | 32.70789 | -116.81236 | 6086 ft | 269 kts | 262° |
| 2026-04-24 03:36 | 32.70271 | -116.83361 | 5761 ft | 268 kts | 250° |
| 2026-04-24 03:36 | 32.69617 | -116.85428 | 5447 ft | 266 kts | 250° |
| 2026-04-24 03:37 | 32.68971 | -116.87484 | 5136 ft | 264 kts | 250° |
| 2026-04-24 03:37 | 32.68344 | -116.89525 | 4838 ft | 262 kts | 251° |
| 2026-04-24 03:37 | 32.67742 | -116.91562 | 4520 ft | 262 kts | 251° |
| 2026-04-24 03:37 | 32.67352 | -116.93654 | 4211 ft | 259 kts | 270° |
| 2026-04-24 03:38 | 32.67684 | -116.95741 | 3908 ft | 257 kts | 286° |
| 2026-04-24 03:38 | 32.68172 | -116.97720 | 3619 ft | 243 kts | 286° |
| 2026-04-24 03:38 | 32.68622 | -116.99544 | 3353 ft | 219 kts | 286° |
| 2026-04-24 03:38 | 32.69035 | -117.01226 | 3107 ft | 205 kts | 286° |
| 2026-04-24 03:39 | 32.69416 | -117.02776 | 2887 ft | 187 kts | 286° |
| 2026-04-24 03:39 | 32.69766 | -117.04200 | 2678 ft | 171 kts | 286° |
| 2026-04-24 03:39 | 32.70082 | -117.05495 | 2450 ft | 157 kts | 286° |
| 2026-04-24 03:39 | 32.70375 | -117.06700 | 2258 ft | 146 kts | 286° |
| 2026-04-24 03:40 | 32.70648 | -117.07830 | 2073 ft | 140 kts | 286° |
| 2026-04-24 03:40 | 32.70915 | -117.08925 | 1876 ft | 137 kts | 286° |
| 2026-04-24 03:40 | 32.71178 | -117.10004 | 1658 ft | 135 kts | 285° |
| 2026-04-24 03:40 | 32.71436 | -117.11070 | 1444 ft | 134 kts | 285° |
| 2026-04-24 03:41 | 32.71692 | -117.12130 | 1250 ft | 133 kts | 286° |
| 2026-04-24 03:41 | 32.71944 | -117.13176 | 1033 ft | 131 kts | 286° |
| 2026-04-24 03:41 | 32.72198 | -117.14220 | 824 ft | 131 kts | 286° |
| 2026-04-24 03:41 | 32.72447 | -117.15241 | 672 ft | 130 kts | 285° |
| 2026-04-24 03:42 | 32.72706 | -117.16281 | 452 ft | 129 kts | 287° |
| 2026-04-24 03:42 | 32.72951 | -117.17303 | 217 ft | 128 kts | 287° |
| 2026-04-24 03:42 | 32.73196 | -117.18309 | 47 ft | 123 kts | 287° |
| 2026-04-24 03:42 | 32.73405 | -117.19150 | 26 ft | 84 kts | 286° |
| 2026-04-24 03:43 | 32.73516 | -117.19617 | 28 ft | 35 kts | 286° |
| 2026-04-24 03:43 | 32.73523 | -117.19757 | 30 ft | 8 kts | 257° |
| 2026-04-24 03:43 | 32.73510 | -117.19822 | 29 ft | 8 kts | 243° |
| 2026-04-24 03:43 | 32.73489 | -117.19851 | 28 ft | 0 kts | 221° |
| 2026-04-24 03:44 | 32.73488 | -117.19852 | 28 ft | 0 kts | 221° |
| 2026-04-24 03:44 | 32.73487 | -117.19852 | 28 ft | 1 kts | 221° |
| 2026-04-24 03:44 | 32.73487 | -117.19853 | 28 ft | 0 kts | 221° |
| 2026-04-24 03:44 | 32.73483 | -117.19857 | 27 ft | 0 kts | 226° |
| 2026-04-24 03:45 | 32.73483 | -117.19858 | 27 ft | 1 kts | 226° |
| 2026-04-24 03:45 | 32.73448 | -117.19901 | 27 ft | 14 kts | 229° |
| 2026-04-24 03:45 | 32.73374 | -117.19901 | 26 ft | 8 kts | 144° |
| 2026-04-24 03:45 | 32.73361 | -117.19890 | 32 ft | 0 kts | 144° |